createdAt,value
2018-08-07T00:00:05.557Z,77.1
2018-08-07T00:05:02.608Z,77.1
2018-08-07T00:10:05.977Z,78.3
2018-08-07T00:15:02.815Z,78.3
2018-08-07T00:20:10.732Z,79.3
2018-08-07T00:25:11.110Z,79.7
2018-08-07T00:30:03.468Z,79.7
2018-08-07T00:35:07.806Z,81.2
2018-08-07T00:40:02.593Z,81.2
2018-08-07T00:45:05.483Z,82.8
2018-08-07T00:50:05.424Z,83.3
2018-08-07T00:55:05.809Z,83.7
2018-08-07T01:00:10.786Z,84.4
2018-08-07T01:05:03.453Z,84.4
2018-08-07T01:10:15.914Z,84.8
2018-08-07T01:15:02.600Z,84.8
2018-08-07T01:20:03.064Z,86
2018-08-07T01:25:03.495Z,86.4
2018-08-07T01:30:07.870Z,87.3
2018-08-07T01:35:03.119Z,87.3
2018-08-07T01:40:13.049Z,88.3
2018-08-07T01:45:03.234Z,88.2
2018-08-07T01:50:02.768Z,88.8
2018-08-07T01:55:02.942Z,89.2
2018-08-07T02:00:03.378Z,89.5
2018-08-07T02:05:02.625Z,90.1
2018-08-07T02:10:13.531Z,90.5
2018-08-07T02:15:05.300Z,90.7
2018-08-07T02:20:02.818Z,90.7
2018-08-07T02:25:03.022Z,91
2018-08-07T02:30:05.868Z,91.5
2018-08-07T02:35:07.812Z,91.6
2018-08-07T02:40:07.745Z,91.5
2018-08-07T02:45:05.486Z,91.5
2018-08-07T02:50:07.935Z,91.7
2018-08-07T02:55:05.655Z,91.9
2018-08-07T03:00:10.626Z,92
2018-08-07T03:05:16.031Z,91.9
2018-08-07T03:10:10.473Z,91.9
2018-08-07T03:15:05.689Z,92.1
2018-08-07T03:20:03.046Z,92.1
2018-08-07T03:25:03.423Z,92
2018-08-07T03:30:02.859Z,92.1
2018-08-07T03:35:05.748Z,92.2
2018-08-07T03:40:07.643Z,92.4
2018-08-07T03:45:18.090Z,92.2
2018-08-07T03:50:03.380Z,92.2
2018-08-07T03:55:02.716Z,92.3
2018-08-07T04:00:03.011Z,92.2
2018-08-07T04:05:02.876Z,91.9
2018-08-07T04:10:12.863Z,91.9
2018-08-07T04:15:05.666Z,92.1
2018-08-07T04:20:03.024Z,92.1
2018-08-07T04:25:10.964Z,92.2
2018-08-07T04:30:08.306Z,92.7
2018-08-07T04:35:15.274Z,92.2
2018-08-07T04:40:16.082Z,91.9
2018-08-07T04:45:05.299Z,91.6
2018-08-07T04:50:02.641Z,91.5
2018-08-07T04:55:08.047Z,91.2
2018-08-07T05:00:05.956Z,91.1
2018-08-07T05:05:02.715Z,91.1
2018-08-07T05:10:07.621Z,89
2018-08-07T05:15:03.165Z,89
2018-08-07T05:20:02.584Z,88
2018-08-07T05:25:02.866Z,87.1
2018-08-07T05:30:03.264Z,86.7
2018-08-07T05:35:15.259Z,85.9
2018-08-07T05:40:03.039Z,85.9
2018-08-07T05:45:02.606Z,86.6
2018-08-07T05:50:05.639Z,83.4
2018-08-07T05:55:02.695Z,83.3
2018-08-07T06:00:10.647Z,82.1
2018-08-07T06:05:05.943Z,81.9
2018-08-07T06:10:02.748Z,81.9
2018-08-07T06:15:05.623Z,80.5
2018-08-07T06:20:08.155Z,79.8
2018-08-07T06:25:05.978Z,79.6
2018-08-07T06:30:18.760Z,78.5
2018-08-07T06:35:05.451Z,78.3
2018-08-07T06:40:05.891Z,77.5
2018-08-07T06:45:02.587Z,77.5
2018-08-07T06:50:02.911Z,77.2
2018-08-07T06:55:06.075Z,75.2
2018-08-07T07:00:03.456Z,75.1
2018-08-07T07:05:02.834Z,73.7
2018-08-07T07:10:02.609Z,72
2018-08-07T07:15:05.548Z,69.3
2018-08-07T07:20:08.077Z,68
2018-08-07T07:25:05.836Z,66.9
2018-08-07T07:30:03.149Z,67
2018-08-07T07:35:05.343Z,65.7
2018-08-07T07:40:05.679Z,64.4
2018-08-07T07:45:08.587Z,64.5
2018-08-07T07:50:20.640Z,62.6
2018-08-07T07:55:05.874Z,62.2
2018-08-07T08:00:03.354Z,62.2
2018-08-07T08:05:02.681Z,61.4
2018-08-07T08:10:02.609Z,60.3
2018-08-07T08:15:02.920Z,58.3
2018-08-07T08:20:03.420Z,56.1
2018-08-07T08:25:15.455Z,55.5
2018-08-07T08:30:10.733Z,53.1
2018-08-07T08:35:03.537Z,53.2
2018-08-07T08:40:05.339Z,53.1
2018-08-07T08:45:05.686Z,53.1
2018-08-07T08:50:18.411Z,52.3
2018-08-07T08:55:02.646Z,52.4
2018-08-07T09:00:03.058Z,52.1
2018-08-07T09:05:03.613Z,51.5
2018-08-07T09:10:13.727Z,50.5
2018-08-07T09:15:03.216Z,50.5
2018-08-07T09:20:05.294Z,50.5
2018-08-07T09:25:03.134Z,50.4
2018-08-07T09:30:06.054Z,49.5
2018-08-07T09:35:20.645Z,49
2018-08-07T09:40:11.218Z,48.5
2018-08-07T09:45:08.084Z,46.6
2018-08-07T09:50:05.954Z,47.9
2018-08-07T09:55:13.119Z,46.6
2018-08-07T10:00:21.168Z,47.5
2018-08-07T10:05:03.024Z,47.5
2018-08-07T10:10:02.900Z,47.4
2018-08-07T10:15:05.771Z,46.5
2018-08-07T10:20:05.804Z,45.6
2018-08-07T10:25:07.761Z,45.6
2018-08-07T10:30:03.160Z,45.5
2018-08-07T10:35:05.178Z,43.8
2018-08-07T10:40:03.090Z,43.8
2018-08-07T10:45:02.624Z,42.9
2018-08-07T10:50:18.359Z,43.1
2018-08-07T10:55:02.719Z,43.1
2018-08-07T11:00:08.232Z,40.2
2018-08-07T11:05:02.607Z,40.2
2018-08-07T11:10:08.558Z,40.3
2018-08-07T11:15:08.105Z,41
2018-08-07T11:20:06.083Z,40.9
2018-08-07T11:25:02.941Z,40.8
2018-08-07T11:30:03.607Z,38.8
2018-08-07T11:35:02.764Z,37.7
2018-08-07T11:40:05.150Z,35.8
2018-08-07T11:45:03.064Z,35.9
2018-08-07T11:50:02.675Z,34.9
2018-08-07T11:55:03.099Z,32.3
2018-08-07T12:00:08.606Z,33.4
2018-08-07T12:05:03.103Z,33.4
2018-08-07T12:10:02.972Z,30.9
2018-08-07T12:15:03.365Z,30.5
2018-08-07T12:20:10.645Z,31.6
2018-08-07T12:25:03.454Z,31.6
2018-08-07T12:30:02.853Z,32.5
2018-08-07T12:35:05.964Z,30
2018-08-07T12:40:02.861Z,30
2018-08-07T12:45:03.324Z,29.3
2018-08-07T12:50:02.818Z,29.8
2018-08-07T12:55:13.444Z,30
2018-08-07T13:00:15.523Z,30
2018-08-07T13:05:05.889Z,29.2
2018-08-07T13:10:12.877Z,27.8
2018-08-07T13:15:03.356Z,27.8
2018-08-07T13:20:30.694Z,29.4
2018-08-07T13:25:10.683Z,28.5
2018-08-07T13:30:03.208Z,28.4
2018-08-07T13:35:02.637Z,29.2
2018-08-07T13:40:08.702Z,29.2
2018-08-07T13:45:03.125Z,29.3
2018-08-07T13:50:20.264Z,28.5
2018-08-07T13:55:03.024Z,28.4
2018-08-07T14:00:08.513Z,28.4
2018-08-07T14:05:08.071Z,29
2018-08-07T14:10:08.092Z,28.8
2018-08-07T14:15:08.533Z,29.5
2018-08-07T14:20:05.634Z,29.6
2018-08-07T14:25:02.579Z,29.5
2018-08-07T14:30:05.500Z,30.6
2018-08-07T14:35:03.505Z,30.5
2018-08-07T14:40:05.968Z,29.6
2018-08-07T14:45:05.775Z,28.7
2018-08-07T14:50:03.188Z,28.6
2018-08-07T14:55:02.753Z,28.5
2018-08-07T15:00:03.187Z,29.7
2018-08-07T15:05:05.497Z,28.2
2018-08-07T15:10:05.082Z,27.5
2018-08-07T15:15:08.118Z,28.9
2018-08-07T15:20:05.248Z,27.7
2018-08-07T15:25:03.212Z,27.6
2018-08-07T15:30:02.775Z,29.5
2018-08-07T15:35:03.213Z,28.6
2018-08-07T15:40:03.120Z,27.5
2018-08-07T15:45:05.234Z,27.7
2018-08-07T15:50:02.778Z,27.7
2018-08-07T15:55:08.319Z,28.6
2018-08-07T16:00:05.259Z,27.5
2018-08-07T16:05:03.350Z,27.5
2018-08-07T16:10:03.335Z,27.1
2018-08-07T16:15:05.463Z,25.6
2018-08-07T16:20:03.099Z,25.6
2018-08-07T16:25:05.247Z,26.1
2018-08-07T16:30:02.950Z,26.1
2018-08-07T16:35:02.539Z,27.9
2018-08-07T16:40:06.016Z,28.8
2018-08-07T16:45:02.971Z,28.8
2018-08-07T16:50:03.377Z,28.2
2018-08-07T16:55:02.945Z,28.5
2018-08-07T17:00:08.492Z,29
2018-08-07T17:05:03.005Z,29
2018-08-07T17:10:02.956Z,29.3
2018-08-07T17:15:08.541Z,29.6
2018-08-07T17:20:03.059Z,29.6
2018-08-07T17:25:02.754Z,30.3
2018-08-07T17:30:03.216Z,30.5
2018-08-07T17:35:07.744Z,31.9
2018-08-07T17:40:02.626Z,31.7
2018-08-07T17:45:10.656Z,33
2018-08-07T17:50:08.090Z,31.9
2018-08-07T17:55:05.152Z,32.4
2018-08-07T18:00:03.548Z,32.4
2018-08-07T18:05:08.117Z,37.5
2018-08-07T18:10:05.545Z,34.2
2018-08-07T18:15:03.519Z,34.1
2018-08-07T18:20:18.178Z,36
2018-08-07T18:25:02.550Z,35.9
2018-08-07T18:30:02.974Z,36
2018-08-07T18:35:11.100Z,38.5
2018-08-07T18:40:08.034Z,38.9
2018-08-07T18:45:28.757Z,38
2018-08-07T18:50:03.092Z,38.2
2018-08-07T18:55:07.676Z,38
2018-08-07T19:00:03.092Z,38
2018-08-07T19:05:02.621Z,36
2018-08-07T19:10:08.532Z,35.3
2018-08-07T19:15:02.926Z,35.3
2018-08-07T19:20:06.043Z,39
2018-08-07T19:25:03.108Z,38.9
2018-08-07T19:30:03.495Z,37.5
2018-08-07T19:35:05.501Z,38.8
2018-08-07T19:40:05.881Z,37.2
2018-08-07T19:45:05.646Z,39.7
2018-08-07T19:50:05.542Z,36.9
2018-08-07T19:55:03.403Z,36.9
2018-08-07T20:00:02.808Z,39.8
2018-08-07T20:05:03.298Z,39.9
2018-08-07T20:10:08.299Z,40.9
2018-08-07T20:15:06.090Z,41.9
2018-08-07T20:20:07.629Z,43.3
2018-08-07T20:25:05.720Z,41.3
2018-08-07T20:30:03.102Z,41.3
2018-08-07T20:35:03.524Z,41.3
2018-08-07T20:40:05.980Z,43.3
2018-08-07T20:45:05.392Z,44.2
2018-08-07T20:50:05.407Z,45.4
2018-08-07T20:55:03.379Z,45.4
2018-08-07T21:00:02.797Z,45.2
2018-08-07T21:05:03.258Z,45
2018-08-07T21:10:03.232Z,45.8
2018-08-07T21:15:05.144Z,46.8
2018-08-07T21:20:02.847Z,46.8
2018-08-07T21:25:03.362Z,47.1
2018-08-07T21:30:07.825Z,48.1
2018-08-07T21:35:03.436Z,48.1
2018-08-07T21:40:03.339Z,47.3
2018-08-07T21:45:05.387Z,49
2018-08-07T21:50:05.362Z,49.5
2018-08-07T21:55:05.805Z,49.8
2018-08-07T22:00:03.205Z,49.8
2018-08-07T22:05:05.243Z,50.3
2018-08-07T22:10:05.661Z,47
2018-08-07T22:15:17.711Z,48.4
2018-08-07T22:20:03.268Z,48.4
2018-08-07T22:25:17.813Z,46.2
2018-08-07T22:30:03.257Z,46.2
2018-08-07T22:35:05.132Z,45.1
2018-08-07T22:40:02.995Z,44.9
2018-08-07T22:45:05.969Z,44.7
2018-08-07T22:50:03.305Z,44.8
2018-08-07T22:55:02.781Z,44.9
2018-08-07T23:00:03.429Z,45.7
2018-08-07T23:05:03.249Z,45.7
2018-08-07T23:10:05.675Z,44.9
2018-08-07T23:15:06.013Z,45
2018-08-07T23:20:03.512Z,44.9
2018-08-07T23:25:03.015Z,45.1
2018-08-07T23:30:05.890Z,45.8
2018-08-07T23:35:05.250Z,44.9
2018-08-07T23:40:08.183Z,44.8
2018-08-07T23:45:07.627Z,45.1
2018-08-07T23:50:10.682Z,43.4
2018-08-07T23:55:03.472Z,44.2
